sensor_id;sensor_type;location;lat;lon;timestamp;temperature;humidity
3994;DHT22;2011;48.238;13.948;2023-08-21T00:01:33;23.00;99.90
3994;DHT22;2011;48.238;13.948;2023-08-21T00:04:00;23.00;99.90
3994;DHT22;2011;48.238;13.948;2023-08-21T00:06:27;23.00;99.90
3994;DHT22;2011;48.238;13.948;2023-08-21T00:08:54;22.90;99.90
3994;DHT22;2011;48.238;13.948;2023-08-21T00:11:21;22.90;99.90
3994;DHT22;2011;48.238;13.948;2023-08-21T00:13:48;22.90;99.90
3994;DHT22;2011;48.238;13.948;2023-08-21T00:16:16;22.80;99.90
3994;DHT22;2011;48.238;13.948;2023-08-21T00:18:45;22.70;99.90
3994;DHT22;2011;48.238;13.948;2023-08-21T00:21:12;22.70;99.90
3994;DHT22;2011;48.238;13.948;2023-08-21T00:23:39;22.70;99.90
3994;DHT22;2011;48.238;13.948;2023-08-21T00:26:06;22.70;99.90
3994;DHT22;2011;48.238;13.948;2023-08-21T00:28:33;22.60;99.90
3994;DHT22;2011;48.238;13.948;2023-08-21T00:31:01;22.60;99.90
3994;DHT22;2011;48.238;13.948;2023-08-21T00:33:29;22.50;99.90
3994;DHT22;2011;48.238;13.948;2023-08-21T00:35:59;22.50;99.90
3994;DHT22;2011;48.238;13.948;2023-08-21T00:38:26;22.50;99.90
3994;DHT22;2011;48.238;13.948;2023-08-21T00:40:53;22.50;99.90
3994;DHT22;2011;48.238;13.948;2023-08-21T00:43:20;22.50;99.90
3994;DHT22;2011;48.238;13.948;2023-08-21T00:45:48;22.40;99.90
3994;DHT22;2011;48.238;13.948;2023-08-21T00:48:17;22.40;99.90
3994;DHT22;2011;48.238;13.948;2023-08-21T00:50:44;22.40;99.90
3994;DHT22;2011;48.238;13.948;2023-08-21T00:53:13;22.30;99.90
3994;DHT22;2011;48.238;13.948;2023-08-21T00:55:40;22.20;99.90
3994;DHT22;2011;48.238;13.948;2023-08-21T00:58:09;22.20;99.90
3994;DHT22;2011;48.238;13.948;2023-08-21T01:00:38;22.20;99.90
3994;DHT22;2011;48.238;13.948;2023-08-21T01:03:04;22.20;99.90
3994;DHT22;2011;48.238;13.948;2023-08-21T01:05:32;22.10;99.90
3994;DHT22;2011;48.238;13.948;2023-08-21T01:08:01;22.10;99.90
3994;DHT22;2011;48.238;13.948;2023-08-21T01:10:44;22.10;99.90
3994;DHT22;2011;48.238;13.948;2023-08-21T01:13:29;22.00;99.90
3994;DHT22;2011;48.238;13.948;2023-08-21T01:15:59;22.00;99.90
3994;DHT22;2011;48.238;13.948;2023-08-21T01:18:28;21.90;99.90
3994;DHT22;2011;48.238;13.948;2023-08-21T01:20:57;21.90;99.90
3994;DHT22;2011;48.238;13.948;2023-08-21T01:23:33;21.80;99.90
3994;DHT22;2011;48.238;13.948;2023-08-21T01:26:00;21.80;99.90
3994;DHT22;2011;48.238;13.948;2023-08-21T01:28:28;21.80;99.90
3994;DHT22;2011;48.238;13.948;2023-08-21T01:31:07;21.80;99.90
3994;DHT22;2011;48.238;13.948;2023-08-21T01:33:37;21.80;99.90
3994;DHT22;2011;48.238;13.948;2023-08-21T01:36:06;21.80;99.90
3994;DHT22;2011;48.238;13.948;2023-08-21T01:38:34;21.70;99.90
3994;DHT22;2011;48.238;13.948;2023-08-21T01:41:02;21.70;99.90
3994;DHT22;2011;48.238;13.948;2023-08-21T01:43:29;21.70;99.90
3994;DHT22;2011;48.238;13.948;2023-08-21T01:45:56;21.70;99.90
3994;DHT22;2011;48.238;13.948;2023-08-21T01:48:23;21.60;99.90
3994;DHT22;2011;48.238;13.948;2023-08-21T01:50:50;21.60;99.90
3994;DHT22;2011;48.238;13.948;2023-08-21T01:53:17;21.50;99.90
3994;DHT22;2011;48.238;13.948;2023-08-21T01:55:46;21.50;99.90
3994;DHT22;2011;48.238;13.948;2023-08-21T01:58:12;21.40;99.90
3994;DHT22;2011;48.238;13.948;2023-08-21T02:00:40;21.50;99.90
3994;DHT22;2011;48.238;13.948;2023-08-21T02:03:07;21.40;99.90
3994;DHT22;2011;48.238;13.948;2023-08-21T02:05:38;21.40;99.90
3994;DHT22;2011;48.238;13.948;2023-08-21T02:08:06;21.40;99.90
3994;DHT22;2011;48.238;13.948;2023-08-21T02:10:33;21.40;99.90
3994;DHT22;2011;48.238;13.948;2023-08-21T02:13:02;21.40;99.90
3994;DHT22;2011;48.238;13.948;2023-08-21T02:15:29;21.40;99.90
3994;DHT22;2011;48.238;13.948;2023-08-21T02:17:56;21.30;99.90
3994;DHT22;2011;48.238;13.948;2023-08-21T02:20:23;21.30;99.90
3994;DHT22;2011;48.238;13.948;2023-08-21T02:22:50;21.20;99.90
3994;DHT22;2011;48.238;13.948;2023-08-21T02:25:17;21.20;99.90
3994;DHT22;2011;48.238;13.948;2023-08-21T02:27:44;21.20;99.90
3994;DHT22;2011;48.238;13.948;2023-08-21T02:30:13;21.20;99.90
3994;DHT22;2011;48.238;13.948;2023-08-21T02:32:40;21.20;99.90
3994;DHT22;2011;48.238;13.948;2023-08-21T02:35:08;21.20;99.90
3994;DHT22;2011;48.238;13.948;2023-08-21T02:37:35;21.20;99.90
3994;DHT22;2011;48.238;13.948;2023-08-21T02:40:06;21.20;99.90
3994;DHT22;2011;48.238;13.948;2023-08-21T02:42:34;21.10;99.90
3994;DHT22;2011;48.238;13.948;2023-08-21T02:45:02;21.10;99.90
3994;DHT22;2011;48.238;13.948;2023-08-21T02:47:36;21.10;99.90
3994;DHT22;2011;48.238;13.948;2023-08-21T02:50:04;21.00;99.90
3994;DHT22;2011;48.238;13.948;2023-08-21T02:52:31;21.00;99.90
3994;DHT22;2011;48.238;13.948;2023-08-21T02:54:59;21.00;99.90
3994;DHT22;2011;48.238;13.948;2023-08-21T02:57:26;20.90;99.90
3994;DHT22;2011;48.238;13.948;2023-08-21T02:59:54;20.90;99.90
3994;DHT22;2011;48.238;13.948;2023-08-21T03:02:21;21.00;99.90
3994;DHT22;2011;48.238;13.948;2023-08-21T03:04:50;20.90;99.90
3994;DHT22;2011;48.238;13.948;2023-08-21T03:07:17;20.90;99.90
3994;DHT22;2011;48.238;13.948;2023-08-21T03:09:46;20.90;99.90
3994;DHT22;2011;48.238;13.948;2023-08-21T03:12:13;20.80;99.90
3994;DHT22;2011;48.238;13.948;2023-08-21T03:14:40;20.80;99.90
3994;DHT22;2011;48.238;13.948;2023-08-21T03:17:07;20.70;99.90
3994;DHT22;2011;48.238;13.948;2023-08-21T03:19:34;20.70;99.90
3994;DHT22;2011;48.238;13.948;2023-08-21T03:22:03;20.70;99.90
3994;DHT22;2011;48.238;13.948;2023-08-21T03:24:30;20.80;99.90
3994;DHT22;2011;48.238;13.948;2023-08-21T03:26:57;20.70;99.90
3994;DHT22;2011;48.238;13.948;2023-08-21T03:29:24;20.70;99.90
3994;DHT22;2011;48.238;13.948;2023-08-21T03:31:52;20.70;99.90
3994;DHT22;2011;48.238;13.948;2023-08-21T03:34:19;20.70;99.90
3994;DHT22;2011;48.238;13.948;2023-08-21T03:36:46;20.60;99.90
3994;DHT22;2011;48.238;13.948;2023-08-21T03:39:15;20.60;99.90
3994;DHT22;2011;48.238;13.948;2023-08-21T03:41:42;20.60;99.90
3994;DHT22;2011;48.238;13.948;2023-08-21T03:44:09;20.50;99.90
3994;DHT22;2011;48.238;13.948;2023-08-21T03:46:36;20.50;99.90
3994;DHT22;2011;48.238;13.948;2023-08-21T03:49:03;20.40;99.90
3994;DHT22;2011;48.238;13.948;2023-08-21T03:51:30;20.50;99.90
3994;DHT22;2011;48.238;13.948;2023-08-21T03:53:58;20.40;99.90
3994;DHT22;2011;48.238;13.948;2023-08-21T03:56:26;20.40;99.90
3994;DHT22;2011;48.238;13.948;2023-08-21T03:58:53;20.40;99.90
3994;DHT22;2011;48.238;13.948;2023-08-21T04:01:20;20.40;99.90
3994;DHT22;2011;48.238;13.948;2023-08-21T04:03:47;20.40;99.90
3994;DHT22;2011;48.238;13.948;2023-08-21T04:06:14;20.40;99.90
3994;DHT22;2011;48.238;13.948;2023-08-21T04:08:41;20.40;99.90
3994;DHT22;2011;48.238;13.948;2023-08-21T04:11:09;20.40;99.90
3994;DHT22;2011;48.238;13.948;2023-08-21T04:13:37;20.40;99.90
3994;DHT22;2011;48.238;13.948;2023-08-21T04:16:04;20.40;99.90
3994;DHT22;2011;48.238;13.948;2023-08-21T04:18:31;20.40;99.90
3994;DHT22;2011;48.238;13.948;2023-08-21T04:20:58;20.40;99.90
3994;DHT22;2011;48.238;13.948;2023-08-21T04:23:25;20.40;99.90
3994;DHT22;2011;48.238;13.948;2023-08-21T04:25:52;20.30;99.90
3994;DHT22;2011;48.238;13.948;2023-08-21T04:28:19;20.40;99.90
3994;DHT22;2011;48.238;13.948;2023-08-21T04:30:48;20.30;99.90
3994;DHT22;2011;48.238;13.948;2023-08-21T04:33:15;20.30;99.90
3994;DHT22;2011;48.238;13.948;2023-08-21T04:35:42;20.30;99.90
3994;DHT22;2011;48.238;13.948;2023-08-21T04:38:09;20.30;99.90
3994;DHT22;2011;48.238;13.948;2023-08-21T04:40:36;20.30;99.90
3994;DHT22;2011;48.238;13.948;2023-08-21T04:43:03;20.30;99.90
3994;DHT22;2011;48.238;13.948;2023-08-21T04:45:30;20.30;99.90
3994;DHT22;2011;48.238;13.948;2023-08-21T04:47:58;20.30;99.90
3994;DHT22;2011;48.238;13.948;2023-08-21T04:50:26;20.30;99.90
3994;DHT22;2011;48.238;13.948;2023-08-21T04:52:53;20.40;99.90
3994;DHT22;2011;48.238;13.948;2023-08-21T04:55:20;20.30;99.90
3994;DHT22;2011;48.238;13.948;2023-08-21T04:57:47;20.40;99.90
3994;DHT22;2011;48.238;13.948;2023-08-21T05:00:14;20.40;99.90
3994;DHT22;2011;48.238;13.948;2023-08-21T05:02:42;20.40;99.90
3994;DHT22;2011;48.238;13.948;2023-08-21T05:05:10;20.50;99.90
3994;DHT22;2011;48.238;13.948;2023-08-21T05:07:37;20.50;99.90
3994;DHT22;2011;48.238;13.948;2023-08-21T05:10:06;20.60;99.90
3994;DHT22;2011;48.238;13.948;2023-08-21T05:12:33;20.60;99.90
3994;DHT22;2011;48.238;13.948;2023-08-21T05:15:00;20.60;99.90
3994;DHT22;2011;48.238;13.948;2023-08-21T05:17:27;20.60;99.90
3994;DHT22;2011;48.238;13.948;2023-08-21T05:19:55;20.70;99.90
3994;DHT22;2011;48.238;13.948;2023-08-21T05:22:23;20.70;99.90
3994;DHT22;2011;48.238;13.948;2023-08-21T05:24:51;20.80;99.90
3994;DHT22;2011;48.238;13.948;2023-08-21T05:27:18;20.80;99.90
3994;DHT22;2011;48.238;13.948;2023-08-21T05:29:45;20.90;99.90
3994;DHT22;2011;48.238;13.948;2023-08-21T05:32:12;20.90;99.90
3994;DHT22;2011;48.238;13.948;2023-08-21T05:34:39;21.00;99.90
3994;DHT22;2011;48.238;13.948;2023-08-21T05:37:06;21.00;99.90
3994;DHT22;2011;48.238;13.948;2023-08-21T05:39:34;21.00;99.90
3994;DHT22;2011;48.238;13.948;2023-08-21T05:42:02;21.10;99.90
3994;DHT22;2011;48.238;13.948;2023-08-21T05:44:29;21.20;99.90
3994;DHT22;2011;48.238;13.948;2023-08-21T05:46:56;21.30;99.90
3994;DHT22;2011;48.238;13.948;2023-08-21T05:49:23;21.40;99.90
3994;DHT22;2011;48.238;13.948;2023-08-21T05:51:50;21.50;99.90
3994;DHT22;2011;48.238;13.948;2023-08-21T05:54:17;21.60;99.90
3994;DHT22;2011;48.238;13.948;2023-08-21T05:56:45;21.70;99.90
3994;DHT22;2011;48.238;13.948;2023-08-21T05:59:12;21.80;99.90
3994;DHT22;2011;48.238;13.948;2023-08-21T06:01:52;22.00;99.90
3994;DHT22;2011;48.238;13.948;2023-08-21T06:04:19;22.20;99.90
3994;DHT22;2011;48.238;13.948;2023-08-21T06:06:46;22.30;99.90
3994;DHT22;2011;48.238;13.948;2023-08-21T06:09:13;22.40;99.90
3994;DHT22;2011;48.238;13.948;2023-08-21T06:11:41;22.50;99.90
3994;DHT22;2011;48.238;13.948;2023-08-21T06:14:10;22.60;99.90
3994;DHT22;2011;48.238;13.948;2023-08-21T06:16:36;22.80;99.90
3994;DHT22;2011;48.238;13.948;2023-08-21T06:19:03;22.90;99.90
3994;DHT22;2011;48.238;13.948;2023-08-21T06:21:30;23.00;99.90
3994;DHT22;2011;48.238;13.948;2023-08-21T06:23:57;23.10;99.90
3994;DHT22;2011;48.238;13.948;2023-08-21T06:26:24;23.20;99.90
3994;DHT22;2011;48.238;13.948;2023-08-21T06:28:51;23.20;99.90
3994;DHT22;2011;48.238;13.948;2023-08-21T06:31:20;23.30;99.90
3994;DHT22;2011;48.238;13.948;2023-08-21T06:33:46;23.40;99.90
3994;DHT22;2011;48.238;13.948;2023-08-21T06:36:13;23.50;99.90
3994;DHT22;2011;48.238;13.948;2023-08-21T06:38:41;23.70;99.90
3994;DHT22;2011;48.238;13.948;2023-08-21T06:41:08;23.80;99.90
3994;DHT22;2011;48.238;13.948;2023-08-21T06:43:35;23.90;99.90
3994;DHT22;2011;48.238;13.948;2023-08-21T06:46:02;23.90;99.90
3994;DHT22;2011;48.238;13.948;2023-08-21T06:48:30;24.00;99.90
3994;DHT22;2011;48.238;13.948;2023-08-21T06:50:57;24.00;99.90
3994;DHT22;2011;48.238;13.948;2023-08-21T06:53:24;24.10;99.90
3994;DHT22;2011;48.238;13.948;2023-08-21T06:55:51;24.10;99.90
3994;DHT22;2011;48.238;13.948;2023-08-21T06:58:18;24.20;99.90
3994;DHT22;2011;48.238;13.948;2023-08-21T07:00:45;24.30;99.90
3994;DHT22;2011;48.238;13.948;2023-08-21T07:03:12;24.40;99.90
3994;DHT22;2011;48.238;13.948;2023-08-21T07:05:40;24.60;99.90
3994;DHT22;2011;48.238;13.948;2023-08-21T07:08:07;24.60;99.90
3994;DHT22;2011;48.238;13.948;2023-08-21T07:10:36;24.70;99.90
3994;DHT22;2011;48.238;13.948;2023-08-21T07:13:03;24.90;99.90
3994;DHT22;2011;48.238;13.948;2023-08-21T07:15:30;25.00;99.90
3994;DHT22;2011;48.238;13.948;2023-08-21T07:17:57;25.00;99.90
3994;DHT22;2011;48.238;13.948;2023-08-21T07:20:24;25.00;99.90
3994;DHT22;2011;48.238;13.948;2023-08-21T07:22:52;25.10;99.90
3994;DHT22;2011;48.238;13.948;2023-08-21T07:25:19;25.20;99.90
3994;DHT22;2011;48.238;13.948;2023-08-21T07:27:46;25.30;99.90
3994;DHT22;2011;48.238;13.948;2023-08-21T07:30:13;25.40;99.90
3994;DHT22;2011;48.238;13.948;2023-08-21T07:32:40;25.40;99.90
3994;DHT22;2011;48.238;13.948;2023-08-21T07:35:07;25.50;99.90
3994;DHT22;2011;48.238;13.948;2023-08-21T07:37:34;25.60;99.90
3994;DHT22;2011;48.238;13.948;2023-08-21T07:40:04;25.70;99.90
3994;DHT22;2011;48.238;13.948;2023-08-21T07:42:31;25.80;99.90
3994;DHT22;2011;48.238;13.948;2023-08-21T07:44:58;25.90;99.90
3994;DHT22;2011;48.238;13.948;2023-08-21T07:47:26;26.00;99.90
3994;DHT22;2011;48.238;13.948;2023-08-21T07:49:53;26.10;99.90
3994;DHT22;2011;48.238;13.948;2023-08-21T07:52:20;26.20;99.90
3994;DHT22;2011;48.238;13.948;2023-08-21T07:54:51;26.30;99.90
3994;DHT22;2011;48.238;13.948;2023-08-21T07:57:19;26.30;99.90
3994;DHT22;2011;48.238;13.948;2023-08-21T07:59:47;26.40;99.90
3994;DHT22;2011;48.238;13.948;2023-08-21T08:02:14;26.50;99.90
3994;DHT22;2011;48.238;13.948;2023-08-21T08:04:41;26.50;99.90
3994;DHT22;2011;48.238;13.948;2023-08-21T08:07:08;26.60;99.90
3994;DHT22;2011;48.238;13.948;2023-08-21T08:09:35;26.70;99.90
3994;DHT22;2011;48.238;13.948;2023-08-21T08:12:03;26.70;99.90
3994;DHT22;2011;48.238;13.948;2023-08-21T08:14:31;26.80;99.90
3994;DHT22;2011;48.238;13.948;2023-08-21T08:16:58;26.90;99.90
3994;DHT22;2011;48.238;13.948;2023-08-21T08:19:25;26.90;99.90
3994;DHT22;2011;48.238;13.948;2023-08-21T08:21:52;27.00;99.90
3994;DHT22;2011;48.238;13.948;2023-08-21T08:24:19;27.00;99.90
3994;DHT22;2011;48.238;13.948;2023-08-21T08:26:45;27.10;99.90
3994;DHT22;2011;48.238;13.948;2023-08-21T08:29:12;27.20;99.90
3994;DHT22;2011;48.238;13.948;2023-08-21T08:31:41;27.30;99.90
3994;DHT22;2011;48.238;13.948;2023-08-21T08:34:07;27.30;99.90
3994;DHT22;2011;48.238;13.948;2023-08-21T08:36:35;27.40;99.90
3994;DHT22;2011;48.238;13.948;2023-08-21T08:39:02;27.50;99.90
3994;DHT22;2011;48.238;13.948;2023-08-21T08:41:34;27.60;99.90
3994;DHT22;2011;48.238;13.948;2023-08-21T08:44:05;27.60;99.90
3994;DHT22;2011;48.238;13.948;2023-08-21T08:46:32;27.70;99.90
3994;DHT22;2011;48.238;13.948;2023-08-21T08:49:02;27.70;99.90
3994;DHT22;2011;48.238;13.948;2023-08-21T08:51:29;27.80;99.90
3994;DHT22;2011;48.238;13.948;2023-08-21T08:53:58;27.90;99.90
3994;DHT22;2011;48.238;13.948;2023-08-21T08:56:25;28.00;99.90
3994;DHT22;2011;48.238;13.948;2023-08-21T08:58:52;28.10;99.90
3994;DHT22;2011;48.238;13.948;2023-08-21T09:01:19;28.20;99.90
3994;DHT22;2011;48.238;13.948;2023-08-21T09:03:46;28.20;99.90
3994;DHT22;2011;48.238;13.948;2023-08-21T09:06:17;28.30;99.90
3994;DHT22;2011;48.238;13.948;2023-08-21T09:08:53;28.40;99.90
3994;DHT22;2011;48.238;13.948;2023-08-21T09:11:20;28.50;99.90
3994;DHT22;2011;48.238;13.948;2023-08-21T09:13:49;28.70;99.90
3994;DHT22;2011;48.238;13.948;2023-08-21T09:16:17;28.80;99.90
3994;DHT22;2011;48.238;13.948;2023-08-21T09:18:47;28.90;99.90
3994;DHT22;2011;48.238;13.948;2023-08-21T09:21:17;29.00;99.90
3994;DHT22;2011;48.238;13.948;2023-08-21T09:23:45;29.10;99.90
3994;DHT22;2011;48.238;13.948;2023-08-21T09:26:18;29.20;99.90
3994;DHT22;2011;48.238;13.948;2023-08-21T09:28:46;29.20;99.90
3994;DHT22;2011;48.238;13.948;2023-08-21T09:31:13;29.30;99.90
3994;DHT22;2011;48.238;13.948;2023-08-21T09:33:40;29.40;99.90
3994;DHT22;2011;48.238;13.948;2023-08-21T09:36:09;29.40;99.90
3994;DHT22;2011;48.238;13.948;2023-08-21T09:38:39;29.60;99.90
3994;DHT22;2011;48.238;13.948;2023-08-21T09:41:07;29.70;99.90
3994;DHT22;2011;48.238;13.948;2023-08-21T09:43:41;29.70;99.80
3994;DHT22;2011;48.238;13.948;2023-08-21T09:46:09;29.80;99.90
3994;DHT22;2011;48.238;13.948;2023-08-21T09:48:41;29.90;99.90
3994;DHT22;2011;48.238;13.948;2023-08-21T09:51:08;30.00;99.90
3994;DHT22;2011;48.238;13.948;2023-08-21T09:53:38;30.10;99.90
3994;DHT22;2011;48.238;13.948;2023-08-21T09:56:06;30.10;99.50
3994;DHT22;2011;48.238;13.948;2023-08-21T09:58:34;30.20;99.70
3994;DHT22;2011;48.238;13.948;2023-08-21T10:01:04;30.20;99.00
3994;DHT22;2011;48.238;13.948;2023-08-21T10:03:34;30.30;98.10
3994;DHT22;2011;48.238;13.948;2023-08-21T10:06:03;30.40;98.60
3994;DHT22;2011;48.238;13.948;2023-08-21T10:08:32;30.50;98.30
3994;DHT22;2011;48.238;13.948;2023-08-21T10:11:06;30.50;97.60
3994;DHT22;2011;48.238;13.948;2023-08-21T10:13:36;30.60;97.80
3994;DHT22;2011;48.238;13.948;2023-08-21T10:16:04;30.70;98.20
3994;DHT22;2011;48.238;13.948;2023-08-21T10:18:33;30.80;97.90
3994;DHT22;2011;48.238;13.948;2023-08-21T10:21:14;30.90;96.60
3994;DHT22;2011;48.238;13.948;2023-08-21T10:23:42;31.00;96.30
3994;DHT22;2011;48.238;13.948;2023-08-21T10:26:13;31.00;95.50
3994;DHT22;2011;48.238;13.948;2023-08-21T10:28:48;31.00;95.20
3994;DHT22;2011;48.238;13.948;2023-08-21T10:31:30;31.10;95.70
3994;DHT22;2011;48.238;13.948;2023-08-21T10:33:58;31.20;94.90
3994;DHT22;2011;48.238;13.948;2023-08-21T10:37:03;31.30;94.70
3994;DHT22;2011;48.238;13.948;2023-08-21T10:39:31;31.40;94.80
3994;DHT22;2011;48.238;13.948;2023-08-21T10:42:02;31.50;95.20
3994;DHT22;2011;48.238;13.948;2023-08-21T10:44:37;31.50;95.00
3994;DHT22;2011;48.238;13.948;2023-08-21T10:47:15;31.60;94.00
3994;DHT22;2011;48.238;13.948;2023-08-21T10:49:44;31.60;92.50
3994;DHT22;2011;48.238;13.948;2023-08-21T10:52:12;31.60;93.00
3994;DHT22;2011;48.238;13.948;2023-08-21T10:54:46;31.70;93.70
3994;DHT22;2011;48.238;13.948;2023-08-21T10:57:14;31.80;93.30
3994;DHT22;2011;48.238;13.948;2023-08-21T10:59:55;31.80;93.10
3994;DHT22;2011;48.238;13.948;2023-08-21T11:02:22;31.80;92.40
3994;DHT22;2011;48.238;13.948;2023-08-21T11:04:50;31.90;92.60
3994;DHT22;2011;48.238;13.948;2023-08-21T11:07:17;32.00;91.90
3994;DHT22;2011;48.238;13.948;2023-08-21T11:09:44;32.00;91.10
3994;DHT22;2011;48.238;13.948;2023-08-21T11:12:14;32.10;91.10
3994;DHT22;2011;48.238;13.948;2023-08-21T11:14:42;32.20;91.30
3994;DHT22;2011;48.238;13.948;2023-08-21T11:17:09;32.30;91.90
3994;DHT22;2011;48.238;13.948;2023-08-21T11:19:37;32.50;92.20
3994;DHT22;2011;48.238;13.948;2023-08-21T11:22:05;32.50;91.70
3994;DHT22;2011;48.238;13.948;2023-08-21T11:24:44;32.60;91.50
3994;DHT22;2011;48.238;13.948;2023-08-21T11:27:14;32.70;91.50
3994;DHT22;2011;48.238;13.948;2023-08-21T11:29:42;32.70;90.90
3994;DHT22;2011;48.238;13.948;2023-08-21T11:32:10;32.80;90.20
3994;DHT22;2011;48.238;13.948;2023-08-21T11:34:38;32.90;89.00
3994;DHT22;2011;48.238;13.948;2023-08-21T11:37:05;32.90;88.40
3994;DHT22;2011;48.238;13.948;2023-08-21T11:39:42;33.00;88.20
3994;DHT22;2011;48.238;13.948;2023-08-21T11:42:11;33.10;86.70
3994;DHT22;2011;48.238;13.948;2023-08-21T11:44:46;33.10;84.20
3994;DHT22;2011;48.238;13.948;2023-08-21T11:47:13;33.20;82.90
3994;DHT22;2011;48.238;13.948;2023-08-21T11:49:41;33.30;82.50
3994;DHT22;2011;48.238;13.948;2023-08-21T11:52:09;33.40;81.70
3994;DHT22;2011;48.238;13.948;2023-08-21T11:54:39;33.50;80.80
3994;DHT22;2011;48.238;13.948;2023-08-21T11:57:07;33.50;81.50
3994;DHT22;2011;48.238;13.948;2023-08-21T11:59:35;33.50;79.20
3994;DHT22;2011;48.238;13.948;2023-08-21T12:02:10;33.60;80.10
3994;DHT22;2011;48.238;13.948;2023-08-21T12:04:37;33.70;79.60
3994;DHT22;2011;48.238;13.948;2023-08-21T12:07:04;33.70;79.20
3994;DHT22;2011;48.238;13.948;2023-08-21T12:09:31;33.80;80.80
3994;DHT22;2011;48.238;13.948;2023-08-21T12:11:58;33.90;78.90
3994;DHT22;2011;48.238;13.948;2023-08-21T12:14:27;34.00;79.90
3994;DHT22;2011;48.238;13.948;2023-08-21T12:16:54;34.10;79.40
3994;DHT22;2011;48.238;13.948;2023-08-21T12:19:23;34.20;79.00
3994;DHT22;2011;48.238;13.948;2023-08-21T12:21:50;34.20;76.10
3994;DHT22;2011;48.238;13.948;2023-08-21T12:24:17;34.20;76.20
3994;DHT22;2011;48.238;13.948;2023-08-21T12:26:44;34.30;76.30
3994;DHT22;2011;48.238;13.948;2023-08-21T12:29:11;34.40;76.10
3994;DHT22;2011;48.238;13.948;2023-08-21T12:31:38;34.40;75.10
3994;DHT22;2011;48.238;13.948;2023-08-21T12:34:05;34.40;74.10
3994;DHT22;2011;48.238;13.948;2023-08-21T12:36:34;34.50;73.90
3994;DHT22;2011;48.238;13.948;2023-08-21T12:39:02;34.60;71.20
3994;DHT22;2011;48.238;13.948;2023-08-21T12:41:30;34.60;72.20
3994;DHT22;2011;48.238;13.948;2023-08-21T12:43:58;34.70;72.40
3994;DHT22;2011;48.238;13.948;2023-08-21T12:46:25;34.70;73.80
3994;DHT22;2011;48.238;13.948;2023-08-21T12:48:53;34.80;75.20
3994;DHT22;2011;48.238;13.948;2023-08-21T12:51:20;34.80;74.20
3994;DHT22;2011;48.238;13.948;2023-08-21T12:53:48;35.00;72.60
3994;DHT22;2011;48.238;13.948;2023-08-21T12:56:16;35.00;71.90
3994;DHT22;2011;48.238;13.948;2023-08-21T12:58:45;35.10;72.70
3994;DHT22;2011;48.238;13.948;2023-08-21T13:01:12;35.20;70.80
3994;DHT22;2011;48.238;13.948;2023-08-21T13:03:39;35.20;70.60
3994;DHT22;2011;48.238;13.948;2023-08-21T13:06:06;35.30;70.50
3994;DHT22;2011;48.238;13.948;2023-08-21T13:08:32;35.30;68.00
3994;DHT22;2011;48.238;13.948;2023-08-21T13:11:01;35.40;71.10
3994;DHT22;2011;48.238;13.948;2023-08-21T13:13:28;35.50;71.30
3994;DHT22;2011;48.238;13.948;2023-08-21T13:15:55;35.60;69.60
3994;DHT22;2011;48.238;13.948;2023-08-21T13:18:22;35.60;68.30
3994;DHT22;2011;48.238;13.948;2023-08-21T13:20:49;35.70;68.30
3994;DHT22;2011;48.238;13.948;2023-08-21T13:23:16;35.70;67.00
3994;DHT22;2011;48.238;13.948;2023-08-21T13:25:43;35.80;68.30
3994;DHT22;2011;48.238;13.948;2023-08-21T13:28:11;35.90;69.00
3994;DHT22;2011;48.238;13.948;2023-08-21T13:30:38;36.00;68.50
3994;DHT22;2011;48.238;13.948;2023-08-21T13:33:05;36.10;66.50
3994;DHT22;2011;48.238;13.948;2023-08-21T13:35:32;36.20;68.40
3994;DHT22;2011;48.238;13.948;2023-08-21T13:37:59;36.20;66.50
3994;DHT22;2011;48.238;13.948;2023-08-21T13:40:26;36.20;67.20
3994;DHT22;2011;48.238;13.948;2023-08-21T13:42:53;36.30;66.20
3994;DHT22;2011;48.238;13.948;2023-08-21T13:45:23;36.30;63.60
3994;DHT22;2011;48.238;13.948;2023-08-21T13:47:50;36.50;66.00
3994;DHT22;2011;48.238;13.948;2023-08-21T13:50:18;36.50;64.70
3994;DHT22;2011;48.238;13.948;2023-08-21T13:52:46;36.60;64.50
3994;DHT22;2011;48.238;13.948;2023-08-21T13:55:14;36.60;63.70
3994;DHT22;2011;48.238;13.948;2023-08-21T13:57:41;36.60;63.00
3994;DHT22;2011;48.238;13.948;2023-08-21T14:00:09;36.70;64.60
3994;DHT22;2011;48.238;13.948;2023-08-21T14:02:40;36.70;63.10
3994;DHT22;2011;48.238;13.948;2023-08-21T14:05:08;36.90;63.60
3994;DHT22;2011;48.238;13.948;2023-08-21T14:07:36;37.00;63.50
3994;DHT22;2011;48.238;13.948;2023-08-21T14:10:04;37.00;62.30
3994;DHT22;2011;48.238;13.948;2023-08-21T14:12:31;36.90;61.10
3994;DHT22;2011;48.238;13.948;2023-08-21T14:14:59;37.00;62.60
3994;DHT22;2011;48.238;13.948;2023-08-21T14:17:26;37.10;61.00
3994;DHT22;2011;48.238;13.948;2023-08-21T14:19:55;37.10;62.00
3994;DHT22;2011;48.238;13.948;2023-08-21T14:22:22;37.20;59.60
3994;DHT22;2011;48.238;13.948;2023-08-21T14:24:49;37.20;61.20
3994;DHT22;2011;48.238;13.948;2023-08-21T14:27:16;37.30;61.00
3994;DHT22;2011;48.238;13.948;2023-08-21T14:29:43;37.30;61.70
3994;DHT22;2011;48.238;13.948;2023-08-21T14:32:10;37.30;60.80
3994;DHT22;2011;48.238;13.948;2023-08-21T14:34:37;37.40;60.80
3994;DHT22;2011;48.238;13.948;2023-08-21T14:37:05;37.40;60.00
3994;DHT22;2011;48.238;13.948;2023-08-21T14:39:32;37.40;59.90
3994;DHT22;2011;48.238;13.948;2023-08-21T14:41:59;37.50;59.80
3994;DHT22;2011;48.238;13.948;2023-08-21T14:44:27;37.50;59.50
3994;DHT22;2011;48.238;13.948;2023-08-21T14:46:55;37.50;59.00
3994;DHT22;2011;48.238;13.948;2023-08-21T14:49:23;37.50;58.40
3994;DHT22;2011;48.238;13.948;2023-08-21T14:51:50;37.40;58.10
3994;DHT22;2011;48.238;13.948;2023-08-21T14:54:19;37.40;58.20
3994;DHT22;2011;48.238;13.948;2023-08-21T14:56:46;37.30;58.90
3994;DHT22;2011;48.238;13.948;2023-08-21T14:59:13;37.40;59.60
3994;DHT22;2011;48.238;13.948;2023-08-21T15:01:40;37.50;59.50
3994;DHT22;2011;48.238;13.948;2023-08-21T15:04:08;37.60;59.30
3994;DHT22;2011;48.238;13.948;2023-08-21T15:06:37;37.60;59.30
3994;DHT22;2011;48.238;13.948;2023-08-21T15:09:05;37.40;57.90
3994;DHT22;2011;48.238;13.948;2023-08-21T15:11:34;37.30;57.90
3994;DHT22;2011;48.238;13.948;2023-08-21T15:14:01;37.30;57.40
3994;DHT22;2011;48.238;13.948;2023-08-21T15:16:28;37.40;58.00
3994;DHT22;2011;48.238;13.948;2023-08-21T15:18:56;37.40;58.10
3994;DHT22;2011;48.238;13.948;2023-08-21T15:21:24;37.40;57.70
3994;DHT22;2011;48.238;13.948;2023-08-21T15:23:51;37.30;56.90
3994;DHT22;2011;48.238;13.948;2023-08-21T15:26:19;37.40;56.90
3994;DHT22;2011;48.238;13.948;2023-08-21T15:28:47;37.20;58.50
3994;DHT22;2011;48.238;13.948;2023-08-21T15:31:14;37.30;58.50
3994;DHT22;2011;48.238;13.948;2023-08-21T15:33:41;37.20;56.70
3994;DHT22;2011;48.238;13.948;2023-08-21T15:36:08;37.20;56.70
3994;DHT22;2011;48.238;13.948;2023-08-21T15:38:35;37.20;58.80
3994;DHT22;2011;48.238;13.948;2023-08-21T15:41:02;37.10;57.10
3994;DHT22;2011;48.238;13.948;2023-08-21T15:43:29;37.20;57.20
3994;DHT22;2011;48.238;13.948;2023-08-21T15:45:57;37.10;57.30
3994;DHT22;2011;48.238;13.948;2023-08-21T15:48:24;37.20;57.00
3994;DHT22;2011;48.238;13.948;2023-08-21T15:50:51;37.30;58.20